AerodromSadržaj METAR izveštaja
LYBEMETAR LYBE 230330Z 23005KT CAVOK 19/17 Q1019 NOSIG=
LYBTMETAR LYBT 230330Z VRB02KT 8000 MIFG NSC 16/15 Q1019 NOSIG=
LYKVMETAR LYKV 230300Z VRB01KT CAVOK 15/15 Q1020 NOSIG=
LYNIMETAR LYNI 230330Z 00000KT CAVOK 15/14 Q1020 NOSIG=
LYVRMETAR LYVR 230330Z VRB02KT CAVOK 14/13 Q1019 NOSIG=
LYUZMETAR LYUZ 230330Z AUTO 31003KT CAVOK 14/13 Q1024=
LYPGMETAR LYPG 230330Z 01010KT CAVOK 27/14 Q1016 NOSIG=
LYTVMETAR LYTV 230330Z VRB05KT CAVOK 27/13 Q1015 NOSIG=

Podaci učitani u: 2019-07-23 03:47:17 UTC

METAR, TAF, AIRMET, GAMET, SIGMET

Važna napomena: MET infоrmаciје nа оvim web strаnicаmа imајu infоrmаtivni kаrаktеr, nаmenjene su isključivo vаzduhоplоvnim kоrisnicima, nе smејu sе kоristiti zа bilо kоје kоmеrciјаlnе svrhе, i nе zаmеnjuјu dоkumеntаciјu zа lеt.